createdAt,value
2022-09-04T00:01:23.706Z,16.14
2022-09-04T00:04:04.933Z,16.11
2022-09-04T00:06:41.747Z,16.08
2022-09-04T00:09:41.443Z,16.03
2022-09-04T00:12:08.958Z,16.03
2022-09-04T00:14:45.360Z,16.02
2022-09-04T00:17:23.233Z,16.00
2022-09-04T00:19:56.334Z,15.96
2022-09-04T00:22:29.118Z,15.93
2022-09-04T00:25:25.484Z,15.85
2022-09-04T00:28:02.328Z,15.90
2022-09-04T00:30:29.149Z,15.89
2022-09-04T00:33:10.395Z,15.90
2022-09-04T00:36:03.825Z,15.91
2022-09-04T00:38:51.546Z,15.91
2022-09-04T00:41:30.900Z,15.91
2022-09-04T00:44:18.590Z,15.92
2022-09-04T00:47:14.461Z,15.93
2022-09-04T00:49:51.161Z,15.93
2022-09-04T00:52:39.996Z,15.92
2022-09-04T00:55:44.187Z,15.91
2022-09-04T00:58:42.170Z,15.90
2022-09-04T01:01:14.151Z,15.88
2022-09-04T01:04:08.846Z,15.80
2022-09-04T01:07:00.826Z,15.79
2022-09-04T01:09:57.645Z,15.79
2022-09-04T01:12:34.714Z,15.79
2022-09-04T01:15:23.513Z,15.77
2022-09-04T01:18:12.392Z,15.75
2022-09-04T01:21:06.514Z,15.70
2022-09-04T01:23:52.605Z,15.72
2022-09-04T01:26:40.866Z,15.78
2022-09-04T01:29:39.915Z,15.80
2022-09-04T01:32:28.857Z,15.82
2022-09-04T01:35:26.149Z,15.85
2022-09-04T01:38:11.821Z,15.85
2022-09-04T01:40:52.793Z,15.83
2022-09-04T01:43:21.321Z,15.75
2022-09-04T01:46:18.989Z,15.78
2022-09-04T01:48:45.388Z,15.76
2022-09-04T01:51:21.729Z,15.76
2022-09-04T01:54:14.838Z,15.76
2022-09-04T01:57:08.380Z,15.72
2022-09-04T02:00:01.250Z,15.67
2022-09-04T02:02:45.235Z,15.65
2022-09-04T02:05:35.197Z,15.62
2022-09-04T02:08:14.040Z,15.57
2022-09-04T02:11:11.394Z,15.43
2022-09-04T02:13:56.470Z,15.51
2022-09-04T02:16:35.974Z,15.50
2022-09-04T02:19:20.722Z,15.48
2022-09-04T02:22:31.605Z,15.43
2022-09-04T02:24:58.089Z,15.41
2022-09-04T02:27:46.459Z,15.41
2022-09-04T02:30:17.585Z,15.42
2022-09-04T02:33:12.388Z,15.43
2022-09-04T02:35:52.882Z,15.41
2022-09-04T02:38:46.267Z,15.41
2022-09-04T02:41:20.299Z,15.40
2022-09-04T02:44:11.563Z,15.37
2022-09-04T02:47:03.280Z,15.32
2022-09-04T02:49:56.826Z,15.27
2022-09-04T02:52:45.197Z,15.25
2022-09-04T02:55:31.719Z,15.23
2022-09-04T02:58:26.990Z,15.20
2022-09-04T03:01:12.513Z,15.21
2022-09-04T03:03:50.585Z,15.24
2022-09-04T03:06:29.150Z,15.27
2022-09-04T03:09:01.930Z,15.28
2022-09-04T03:11:48.770Z,15.34
2022-09-04T03:14:38.266Z,15.37
2022-09-04T03:17:27.969Z,15.41
2022-09-04T03:20:06.158Z,15.44
2022-09-04T03:22:54.945Z,15.46
2022-09-04T03:26:00.672Z,15.50
2022-09-04T03:28:51.714Z,15.51
2022-09-04T03:31:34.982Z,15.53
2022-09-04T03:34:20.019Z,15.52
2022-09-04T03:37:21.078Z,15.49
2022-09-04T03:40:09.652Z,15.44
2022-09-04T03:42:57.817Z,15.41
2022-09-04T03:45:36.554Z,15.37
2022-09-04T03:48:21.840Z,15.34
2022-09-04T03:51:04.377Z,15.24
2022-09-04T03:53:56.272Z,15.30
2022-09-04T03:56:44.407Z,15.25
2022-09-04T03:59:18.211Z,15.24
2022-09-04T04:02:10.766Z,15.22
2022-09-04T04:05:20.226Z,15.19
2022-09-04T04:07:53.897Z,15.13
2022-09-04T04:10:51.874Z,15.09
2022-09-04T04:13:31.410Z,15.08
2022-09-04T04:16:12.960Z,15.05
2022-09-04T04:18:54.179Z,15.04
2022-09-04T04:21:55.567Z,15.01
2022-09-04T04:24:39.008Z,15.00
2022-09-04T04:27:28.818Z,14.98
2022-09-04T04:29:55.309Z,14.96
2022-09-04T04:32:55.710Z,14.97
2022-09-04T04:35:29.637Z,14.99
2022-09-04T04:38:04.858Z,14.98
2022-09-04T04:40:49.384Z,14.97
2022-09-04T04:43:40.621Z,14.97
2022-09-04T04:46:45.764Z,14.98
2022-09-04T04:49:34.115Z,14.98
2022-09-04T04:52:19.993Z,14.88
2022-09-04T04:55:06.229Z,14.98
2022-09-04T04:57:56.179Z,15.01
2022-09-04T05:00:27.871Z,15.07
2022-09-04T05:03:15.383Z,15.10
2022-09-04T05:06:04.090Z,15.11
2022-09-04T05:09:01.832Z,15.10
2022-09-04T05:11:50.057Z,15.09
2022-09-04T05:14:22.428Z,15.11
2022-09-04T05:17:04.780Z,15.13
2022-09-04T05:19:56.531Z,15.13
2022-09-04T05:22:47.533Z,15.17
2022-09-04T05:25:24.176Z,15.09
2022-09-04T05:28:09.549Z,15.16
2022-09-04T05:30:44.118Z,15.19
2022-09-04T05:33:10.562Z,15.22
2022-09-04T05:36:00.039Z,15.17
2022-09-04T05:38:35.709Z,15.47
2022-09-04T05:41:06.849Z,16.03
2022-09-04T05:44:00.374Z,16.69
2022-09-04T05:46:45.388Z,17.41
2022-09-04T05:49:30.317Z,18.26
2022-09-04T05:52:29.576Z,19.14
2022-09-04T05:55:01.979Z,19.78
2022-09-04T05:57:40.502Z,20.32
2022-09-04T06:00:16.157Z,20.81
2022-09-04T06:02:58.304Z,21.28
2022-09-04T06:06:03.022Z,21.85
2022-09-04T06:09:05.303Z,22.40
2022-09-04T06:12:03.942Z,22.83
2022-09-04T06:14:59.138Z,23.21
2022-09-04T06:17:46.830Z,23.62
2022-09-04T06:20:37.989Z,24.01
2022-09-04T06:23:24.606Z,24.20
2022-09-04T06:26:12.880Z,24.16
2022-09-04T06:28:56.492Z,23.88
2022-09-04T06:31:23.085Z,23.56
2022-09-04T06:34:08.018Z,23.44
2022-09-04T06:37:03.321Z,23.36
2022-09-04T06:39:44.964Z,23.40
2022-09-04T06:42:36.255Z,23.55
2022-09-04T06:45:26.326Z,23.71
2022-09-04T06:48:27.812Z,23.77
2022-09-04T06:51:27.023Z,23.80
2022-09-04T06:54:13.916Z,23.96
2022-09-04T06:57:01.660Z,24.13
2022-09-04T06:59:37.294Z,24.38
2022-09-04T07:02:12.941Z,24.66
2022-09-04T07:05:00.717Z,24.84
2022-09-04T07:07:34.765Z,25.02
2022-09-04T07:10:10.584Z,25.34
2022-09-04T07:13:10.593Z,25.40
2022-09-04T07:15:57.196Z,25.18
2022-09-04T07:18:37.860Z,25.21
2022-09-04T07:21:19.440Z,25.32
2022-09-04T07:24:00.729Z,25.16
2022-09-04T07:26:37.161Z,25.22
2022-09-04T07:29:23.743Z,25.39
2022-09-04T07:32:07.703Z,25.26
2022-09-04T07:34:43.558Z,25.23
2022-09-04T07:37:39.912Z,25.30
2022-09-04T07:40:44.945Z,25.39
2022-09-04T07:43:21.352Z,25.54
2022-09-04T07:45:56.979Z,25.63
2022-09-04T07:48:40.452Z,25.82
2022-09-04T07:51:13.241Z,26.08
2022-09-04T07:53:51.765Z,26.10
2022-09-04T07:56:37.487Z,26.21
2022-09-04T07:59:28.771Z,26.23
2022-09-04T08:02:19.930Z,26.22
2022-09-04T08:05:16.420Z,26.38
2022-09-04T08:08:10.515Z,26.55
2022-09-04T08:11:00.501Z,26.67
2022-09-04T08:13:45.801Z,26.91
2022-09-04T08:16:28.710Z,26.96
2022-09-04T08:19:10.567Z,27.06
2022-09-04T08:21:48.159Z,27.05
2022-09-04T08:24:33.862Z,27.14
2022-09-04T08:27:04.023Z,27.29
2022-09-04T08:29:40.143Z,27.56
2022-09-04T08:32:25.235Z,27.57
2022-09-04T08:35:18.686Z,27.80
2022-09-04T08:38:19.099Z,27.97
2022-09-04T08:40:56.907Z,28.05
2022-09-04T08:43:53.517Z,28.18
2022-09-04T08:46:39.246Z,28.29
2022-09-04T08:49:35.014Z,28.40
2022-09-04T08:52:43.867Z,28.47
2022-09-04T08:55:32.455Z,28.37
2022-09-04T08:58:34.334Z,28.39
2022-09-04T09:01:26.126Z,28.64
2022-09-04T09:04:07.673Z,28.85
2022-09-04T09:06:59.019Z,28.79
2022-09-04T09:09:40.605Z,28.70
2022-09-04T09:12:41.692Z,28.83
2022-09-04T09:15:46.069Z,28.48
2022-09-04T09:18:37.303Z,28.57
2022-09-04T09:21:35.009Z,28.89
2022-09-04T09:24:20.123Z,28.92
2022-09-04T09:27:09.456Z,28.87
2022-09-04T09:29:57.688Z,29.05
2022-09-04T09:32:50.308Z,29.04
2022-09-04T09:35:42.110Z,29.28
2022-09-04T09:38:19.923Z,29.44
2022-09-04T09:41:02.414Z,29.10
2022-09-04T09:43:57.016Z,28.97
2022-09-04T09:46:47.878Z,28.99
2022-09-04T09:49:48.335Z,29.31
2022-09-04T09:52:37.110Z,29.49
2022-09-04T09:55:12.875Z,29.24
2022-09-04T09:58:13.822Z,28.89
2022-09-04T10:01:00.153Z,28.40
2022-09-04T10:03:39.624Z,27.78
2022-09-04T10:06:44.804Z,27.40
2022-09-04T10:09:27.899Z,26.97
2022-09-04T10:11:57.205Z,26.69
2022-09-04T10:14:35.592Z,26.69
2022-09-04T10:17:39.346Z,26.78
2022-09-04T10:20:34.353Z,27.12
2022-09-04T10:23:25.844Z,27.78
2022-09-04T10:26:08.590Z,28.29
2022-09-04T10:28:43.992Z,28.59
2022-09-04T10:31:22.684Z,28.92
2022-09-04T10:34:07.362Z,29.17
2022-09-04T10:37:07.617Z,29.39
2022-09-04T10:40:23.701Z,29.38
2022-09-04T10:43:30.411Z,29.55
2022-09-04T10:46:22.915Z,29.69
2022-09-04T10:49:21.270Z,29.77
2022-09-04T10:52:17.158Z,30.01
2022-09-04T10:55:14.791Z,30.05
2022-09-04T10:57:59.880Z,30.17
2022-09-04T11:00:39.308Z,30.31
2022-09-04T11:03:28.294Z,30.46
2022-09-04T11:06:03.762Z,30.61
2022-09-04T11:08:55.170Z,30.75
2022-09-04T11:11:52.969Z,30.71
2022-09-04T11:14:19.504Z,30.80
2022-09-04T11:17:24.307Z,30.69
2022-09-04T11:19:57.574Z,30.63
2022-09-04T11:23:01.508Z,30.77
2022-09-04T11:25:50.286Z,30.79
2022-09-04T11:28:40.241Z,30.98
2022-09-04T11:31:25.152Z,31.08
2022-09-04T11:34:20.014Z,31.18
2022-09-04T11:37:18.893Z,31.26
2022-09-04T11:40:06.301Z,31.39
2022-09-04T11:42:41.298Z,31.39
2022-09-04T11:45:27.090Z,31.48
2022-09-04T11:48:07.704Z,31.37
2022-09-04T11:51:16.368Z,31.43
2022-09-04T11:54:00.548Z,31.18
2022-09-04T11:56:37.745Z,30.85
2022-09-04T11:59:28.277Z,30.67
2022-09-04T12:02:26.068Z,30.69
2022-09-04T12:05:13.347Z,30.65
2022-09-04T12:08:08.450Z,30.79
2022-09-04T12:10:42.947Z,30.96
2022-09-04T12:13:30.903Z,31.09
2022-09-04T12:16:44.391Z,31.27
2022-09-04T12:19:30.328Z,31.36
2022-09-04T12:22:31.147Z,31.55
2022-09-04T12:25:16.530Z,31.70
2022-09-04T12:28:04.766Z,31.74
2022-09-04T12:30:49.907Z,31.54
2022-09-04T12:33:44.517Z,31.60
2022-09-04T12:36:34.261Z,31.75
2022-09-04T12:39:10.003Z,31.79
2022-09-04T12:42:16.325Z,31.84
2022-09-04T12:45:21.419Z,32.02
2022-09-04T12:48:27.815Z,32.08
2022-09-04T12:51:09.885Z,32.12
2022-09-04T12:53:52.037Z,32.15
2022-09-04T12:56:26.236Z,32.14
2022-09-04T12:59:28.392Z,31.95
2022-09-04T13:02:31.630Z,31.95
2022-09-04T13:05:25.466Z,31.55
2022-09-04T13:08:18.070Z,31.16
2022-09-04T13:10:56.806Z,30.88
2022-09-04T13:13:33.877Z,30.92
2022-09-04T13:16:20.421Z,31.11
2022-09-04T13:19:08.861Z,31.07
2022-09-04T13:22:07.795Z,30.69
2022-09-04T13:24:52.488Z,30.57
2022-09-04T13:27:32.166Z,30.65
2022-09-04T13:30:21.921Z,30.71
2022-09-04T13:33:13.728Z,30.36
2022-09-04T13:35:59.311Z,29.95
2022-09-04T13:38:44.558Z,30.08
2022-09-04T13:41:14.041Z,30.36
2022-09-04T13:43:51.781Z,30.41
2022-09-04T13:46:24.019Z,30.39
2022-09-04T13:48:59.820Z,30.41
2022-09-04T13:51:35.947Z,30.34
2022-09-04T13:54:27.508Z,30.35
2022-09-04T13:57:09.076Z,30.43
2022-09-04T13:59:37.133Z,30.30
2022-09-04T14:02:08.863Z,30.43
2022-09-04T14:04:44.106Z,30.44
2022-09-04T14:07:18.770Z,30.42
2022-09-04T14:09:49.200Z,30.36
2022-09-04T14:12:19.902Z,30.35
2022-09-04T14:14:59.778Z,30.32
2022-09-04T14:17:41.066Z,30.37
2022-09-04T14:20:23.804Z,30.41
2022-09-04T14:23:27.684Z,30.35
2022-09-04T14:26:02.997Z,30.31
2022-09-04T14:28:40.511Z,30.32
2022-09-04T14:31:20.824Z,30.23
2022-09-04T14:34:13.695Z,30.07
2022-09-04T14:36:56.489Z,29.93
2022-09-04T14:39:32.178Z,29.90
2022-09-04T14:42:12.215Z,29.84
2022-09-04T14:44:44.214Z,29.82
2022-09-04T14:47:47.222Z,29.70
2022-09-04T14:50:16.937Z,29.40
2022-09-04T14:52:50.288Z,29.24
2022-09-04T14:55:25.842Z,29.17
2022-09-04T14:58:05.476Z,29.18
2022-09-04T15:00:34.803Z,28.97
2022-09-04T15:03:22.690Z,28.98
2022-09-04T15:05:57.603Z,28.89
2022-09-04T15:08:36.775Z,28.69
2022-09-04T15:11:09.510Z,28.18
2022-09-04T15:13:53.059Z,28.34
2022-09-04T15:16:30.119Z,28.34
2022-09-04T15:19:22.098Z,28.30
2022-09-04T15:22:00.452Z,28.16
2022-09-04T15:24:48.908Z,28.14
2022-09-04T15:27:20.027Z,28.12
2022-09-04T15:29:52.271Z,28.06
2022-09-04T15:32:25.669Z,28.00
2022-09-04T15:35:07.686Z,27.90
2022-09-04T15:37:35.312Z,27.88
2022-09-04T15:40:31.587Z,27.83
2022-09-04T15:43:11.664Z,27.49
2022-09-04T15:46:01.945Z,27.48
2022-09-04T15:48:53.149Z,27.40
2022-09-04T15:51:22.453Z,27.34
2022-09-04T15:54:00.337Z,27.29
2022-09-04T15:56:35.569Z,27.09
2022-09-04T15:59:15.958Z,27.13
2022-09-04T16:02:12.559Z,27.06
2022-09-04T16:04:46.897Z,26.91
2022-09-04T16:07:20.157Z,26.89
2022-09-04T16:10:02.724Z,26.88
2022-09-04T16:12:33.346Z,26.85
2022-09-04T16:15:16.062Z,26.82
2022-09-04T16:17:47.402Z,26.68
2022-09-04T16:20:51.365Z,26.67
2022-09-04T16:23:26.473Z,26.56
2022-09-04T16:25:54.833Z,26.46
2022-09-04T16:28:31.603Z,26.38
2022-09-04T16:31:02.654Z,26.32
2022-09-04T16:33:37.880Z,26.31
2022-09-04T16:36:11.320Z,26.30
2022-09-04T16:38:47.728Z,26.26
2022-09-04T16:41:19.210Z,26.19
2022-09-04T16:44:26.201Z,26.08
2022-09-04T16:47:22.653Z,25.94
2022-09-04T16:50:13.517Z,25.87
2022-09-04T16:53:13.085Z,25.87
2022-09-04T16:56:03.575Z,25.62
2022-09-04T16:58:39.906Z,25.58
2022-09-04T17:01:28.780Z,25.56
2022-09-04T17:04:13.753Z,25.51
2022-09-04T17:07:02.955Z,25.50
2022-09-04T17:09:48.322Z,25.46
2022-09-04T17:12:39.330Z,25.42
2022-09-04T17:15:39.694Z,25.37
2022-09-04T17:18:21.734Z,25.35
2022-09-04T17:25:45.134Z,25.27
2022-09-04T17:29:08.978Z,25.12
2022-09-04T17:29:13.399Z,25.21
2022-09-04T17:30:54.774Z,25.07
2022-09-04T17:39:57.363Z,25.02
2022-09-04T17:40:50.974Z,24.93
2022-09-04T17:40:55.518Z,24.84
2022-09-04T17:42:21.146Z,24.74
2022-09-04T17:45:01.399Z,24.68
2022-09-04T17:47:43.086Z,24.56
2022-09-04T17:50:17.066Z,24.45
2022-09-04T17:53:12.156Z,24.11
2022-09-04T17:56:28.480Z,24.25
2022-09-04T17:58:57.954Z,24.14
2022-09-04T18:01:53.885Z,24.01
2022-09-04T18:04:22.476Z,23.94
2022-09-04T18:07:33.609Z,23.85
2022-09-04T18:10:02.913Z,23.78
2022-09-04T18:12:39.610Z,23.69
2022-09-04T18:15:34.783Z,23.60
2022-09-04T18:18:24.988Z,23.50
2022-09-04T18:21:08.773Z,23.42
2022-09-04T18:23:51.191Z,23.30
2022-09-04T18:26:27.889Z,23.22
2022-09-04T18:30:17.418Z,23.10
2022-09-04T18:37:09.712Z,22.90
2022-09-04T18:37:21.858Z,22.85
2022-09-04T18:38:14.288Z,22.76
2022-09-04T18:46:45.712Z,22.68
2022-09-04T18:50:23.815Z,22.60
2022-09-04T18:50:32.529Z,22.52
2022-09-04T18:50:34.165Z,22.45
2022-09-04T18:52:17.547Z,22.37
2022-09-04T18:54:48.750Z,22.29
2022-09-04T18:57:24.487Z,22.21
2022-09-04T19:00:07.798Z,22.16
2022-09-04T19:02:53.479Z,22.17
2022-09-04T19:05:21.746Z,22.15
2022-09-04T19:07:52.423Z,22.11
2022-09-04T19:10:26.907Z,22.05
2022-09-04T19:13:08.308Z,21.96
2022-09-04T19:16:00.643Z,21.87
2022-09-04T19:18:43.747Z,21.81
2022-09-04T19:21:14.280Z,21.76
2022-09-04T19:23:47.446Z,21.73
2022-09-04T19:26:48.208Z,21.69
2022-09-04T19:29:42.680Z,21.67
2022-09-04T19:32:22.437Z,21.63
2022-09-04T19:34:57.369Z,21.60
2022-09-04T19:45:05.689Z,21.54
2022-09-04T19:46:04.738Z,21.46
2022-09-04T19:46:11.432Z,21.38
2022-09-04T19:47:28.464Z,21.31
2022-09-04T19:52:53.454Z,20.96
2022-09-04T19:53:40.659Z,21.06
2022-09-04T19:55:45.636Z,21.07
2022-09-04T19:58:19.821Z,21.02
2022-09-04T20:00:54.287Z,20.98
2022-09-04T20:03:33.366Z,20.93
2022-09-04T20:06:26.441Z,20.89
2022-09-04T20:09:01.164Z,20.88
2022-09-04T20:11:39.835Z,20.76
2022-09-04T20:14:19.372Z,20.73
2022-09-04T20:17:36.976Z,20.78
2022-09-04T20:20:19.082Z,20.72
2022-09-04T20:22:51.617Z,20.68
2022-09-04T20:25:25.036Z,20.62
2022-09-04T20:27:54.957Z,20.52
2022-09-04T20:30:24.989Z,20.48
2022-09-04T20:33:11.590Z,20.42
2022-09-04T20:35:47.438Z,20.32
2022-09-04T20:38:30.382Z,20.28
2022-09-04T20:41:26.507Z,20.22
2022-09-04T20:44:27.854Z,20.16
2022-09-04T20:51:48.041Z,20.12
2022-09-04T20:52:54.893Z,20.09
2022-09-04T20:53:29.362Z,20.05
2022-09-04T20:57:03.724Z,20.01
2022-09-04T21:03:06.136Z,19.96
2022-09-04T21:03:17.387Z,19.89
2022-09-04T21:05:32.633Z,19.83
2022-09-04T21:08:29.916Z,19.79
2022-09-04T21:11:38.878Z,19.79
2022-09-04T21:14:00.954Z,19.78
2022-09-04T21:16:59.805Z,19.72
2022-09-04T21:19:28.598Z,19.75
2022-09-04T21:22:02.000Z,19.76
2022-09-04T21:24:50.265Z,19.73
2022-09-04T21:27:46.589Z,19.67
2022-09-04T21:30:16.382Z,19.63
2022-09-04T21:33:24.604Z,19.58
2022-09-04T21:36:25.429Z,19.50
2022-09-04T21:39:19.562Z,19.53
2022-09-04T21:41:51.382Z,19.50
2022-09-04T21:44:52.309Z,19.49
2022-09-04T21:47:44.814Z,19.46
2022-09-04T21:50:42.761Z,19.42
2022-09-04T21:53:37.272Z,19.42
2022-09-04T22:02:25.837Z,19.41
2022-09-04T22:02:43.459Z,19.41
2022-09-04T22:03:09.534Z,19.39
2022-09-04T22:06:04.011Z,19.37
2022-09-04T22:13:30.217Z,19.33
2022-09-04T22:13:35.129Z,19.30
2022-09-04T22:14:36.146Z,19.22
2022-09-04T22:17:07.217Z,19.18
2022-09-04T22:20:12.994Z,19.11
2022-09-04T22:22:59.581Z,19.08
2022-09-04T22:25:41.175Z,19.05
2022-09-04T22:28:47.688Z,18.98
2022-09-04T22:31:24.464Z,18.95
2022-09-04T22:34:15.040Z,18.90
2022-09-04T22:37:20.675Z,18.83
2022-09-04T22:40:05.878Z,18.78
2022-09-04T22:42:43.874Z,18.75
2022-09-04T22:45:22.743Z,18.73
2022-09-04T22:48:11.167Z,18.69
2022-09-04T22:51:16.266Z,18.66
2022-09-04T22:53:57.133Z,18.64
2022-09-04T22:56:45.439Z,18.62
2022-09-04T22:59:41.890Z,18.61
2022-09-04T23:02:48.439Z,18.55
2022-09-04T23:05:29.161Z,18.49
2022-09-04T23:13:42.061Z,18.44
2022-09-04T23:14:02.934Z,18.37
2022-09-04T23:14:41.302Z,18.32
2022-09-04T23:17:17.309Z,18.29
2022-09-04T23:26:36.978Z,18.25
2022-09-04T23:26:47.716Z,18.18
2022-09-04T23:27:00.360Z,18.14
2022-09-04T23:29:41.184Z,18.13
2022-09-04T23:32:32.901Z,18.08
2022-09-04T23:35:15.693Z,18.04
2022-09-04T23:38:00.142Z,18.03
2022-09-04T23:40:39.595Z,18.01
2022-09-04T23:43:30.538Z,17.97
2022-09-04T23:46:18.202Z,17.91
2022-09-04T23:49:12.662Z,17.88
2022-09-04T23:52:26.549Z,17.84
2022-09-04T23:54:59.626Z,17.76
2022-09-04T23:57:57.837Z,17.70
